Time;durP1;ratioP1;P1;durP2;ratioP2;P2;SDS_P1;SDS_P2;PMS_P1;PMS_P2;Temp;Humidity;BMP_temperature;BMP_pressure;BME280_temperature;BME280_humidity;BME280_pressure;Samples;Min_cycle;Max_cycle;Signal;HPM_P1;HPM_P2
2021/01/12 00:00:47;;;;;;;;;;;23.00;35.10;;;;;;1584789;73;1930;-73
2021/01/12 00:02:52;;;;;;;;;;;23.00;35.00;;;;;;1613482;72;725;-71
2021/01/12 00:04:54;;;;;;;;;;;23.00;34.90;;;;;;1612908;72;1157;-70
2021/01/12 00:06:56;;;;;;;;;;;23.00;34.80;;;;;;1610850;74;697;-70
2021/01/12 00:08:58;;;;;;;;;;;23.00;34.70;;;;;;1612801;74;784;-72
2021/01/12 00:11:00;;;;;;;;;;;23.00;34.60;;;;;;1586762;73;697;-74
2021/01/12 00:13:01;;;;;;;;;;;23.00;34.60;;;;;;1609927;72;788;-70
2021/01/12 00:15:04;;;;;;;;;;;23.10;34.70;;;;;;1596344;73;1148;-70
2021/01/12 00:17:07;;;;;;;;;;;23.00;34.40;;;;;;1624272;72;762;-71
2021/01/12 00:19:08;;;;;;;;;;;23.00;34.40;;;;;;1595832;73;855;-71
2021/01/12 00:21:10;;;;;;;;;;;22.90;34.40;;;;;;1595129;73;1941;-73
2021/01/12 00:23:12;;;;;;;;;;;23.00;34.40;;;;;;1595871;73;702;-73
2021/01/12 00:25:14;;;;;;;;;;;23.00;34.40;;;;;;1594509;73;1147;-73
2021/01/12 00:27:17;;;;;;;;;;;22.90;34.30;;;;;;1577163;73;569;-70
2021/01/12 00:29:19;;;;;;;;;;;22.90;34.30;;;;;;1646712;72;740;-72
2021/01/12 00:31:21;;;;;;;;;;;23.00;34.30;;;;;;1624841;72;590;-71
2021/01/12 00:33:23;;;;;;;;;;;23.00;34.20;;;;;;1624713;72;732;-72
2021/01/12 00:35:24;;;;;;;;;;;22.90;34.20;;;;;;1623634;72;1117;-73
2021/01/12 00:37:27;;;;;;;;;;;22.90;34.20;;;;;;1627638;72;686;-72
2021/01/12 00:39:30;;;;;;;;;;;22.90;34.20;;;;;;1625541;72;772;-72
2021/01/12 00:41:32;;;;;;;;;;;22.90;34.10;;;;;;1616599;72;1897;-71
2021/01/12 00:43:33;;;;;;;;;;;22.90;34.10;;;;;;1618257;72;721;-70
2021/01/12 00:45:35;;;;;;;;;;;22.90;34.10;;;;;;1626476;72;1062;-70
2021/01/12 00:47:37;;;;;;;;;;;22.90;34.20;;;;;;1613851;72;807;-73
2021/01/12 00:49:39;;;;;;;;;;;22.90;34.10;;;;;;1621479;72;657;-73
2021/01/12 00:51:41;;;;;;;;;;;22.90;34.00;;;;;;1625584;72;754;-73
2021/01/12 00:53:43;;;;;;;;;;;22.90;33.90;;;;;;1627116;72;1502;-73
2021/01/12 00:55:45;;;;;;;;;;;22.90;33.90;;;;;;1624582;72;1121;-73
2021/01/12 00:57:47;;;;;;;;;;;22.90;33.90;;;;;;1629205;72;806;-71
2021/01/12 00:59:48;;;;;;;;;;;22.90;33.90;;;;;;1627281;72;966;-72
2021/01/12 01:01:50;;;;;;;;;;;22.90;34.00;;;;;;1627530;72;1940;-72
2021/01/12 01:03:52;;;;;;;;;;;22.90;33.90;;;;;;1627501;72;722;-70
2021/01/12 01:05:54;;;;;;;;;;;22.90;33.90;;;;;;1612223;72;1150;-71
2021/01/12 01:07:56;;;;;;;;;;;22.90;33.90;;;;;;1625016;72;692;-71
2021/01/12 01:09:58;;;;;;;;;;;22.80;33.80;;;;;;1627155;72;717;-71
2021/01/12 01:12:00;;;;;;;;;;;22.90;33.90;;;;;;1626217;72;678;-73
2021/01/12 01:14:01;;;;;;;;;;;22.80;33.70;;;;;;1625920;72;1221;-71
2021/01/12 01:16:03;;;;;;;;;;;22.80;33.60;;;;;;1623777;72;763;-71
2021/01/12 01:18:05;;;;;;;;;;;22.80;33.90;;;;;;1624064;72;803;-70
2021/01/12 01:20:08;;;;;;;;;;;22.80;34.00;;;;;;1623014;72;731;-69
2021/01/12 01:22:10;;;;;;;;;;;22.90;34.20;;;;;;1623170;72;1928;-72
2021/01/12 01:24:11;;;;;;;;;;;22.80;34.00;;;;;;1626812;72;1153;-71
2021/01/12 01:26:15;;;;;;;;;;;22.80;34.20;;;;;;1622616;72;819;-68
2021/01/12 01:28:18;;;;;;;;;;;22.80;34.30;;;;;;1621816;72;781;-69
2021/01/12 01:30:21;;;;;;;;;;;22.80;34.40;;;;;;1624104;72;689;-73
2021/01/12 01:32:23;;;;;;;;;;;22.80;34.40;;;;;;1625742;72;719;-68
2021/01/12 01:34:25;;;;;;;;;;;22.80;34.40;;;;;;1624393;72;1072;-68
2021/01/12 01:36:27;;;;;;;;;;;22.80;34.50;;;;;;1624923;72;702;-69
2021/01/12 01:38:29;;;;;;;;;;;22.80;34.50;;;;;;1624199;72;763;-69
2021/01/12 01:40:31;;;;;;;;;;;22.80;34.80;;;;;;1606319;72;777;-69
2021/01/12 01:42:33;;;;;;;;;;;22.70;34.90;;;;;;1611133;72;1922;-71
2021/01/12 01:44:35;;;;;;;;;;;22.60;34.70;;;;;;1609865;72;1131;-65
2021/01/12 01:46:37;;;;;;;;;;;22.80;34.80;;;;;;1590204;73;777;-69
2021/01/12 01:48:38;;;;;;;;;;;22.80;34.60;;;;;;1594789;73;620;-69
2021/01/12 01:50:40;;;;;;;;;;;22.80;34.50;;;;;;1622669;72;711;-69
2021/01/12 01:52:47;;;;;;;;;;;22.90;34.50;;;;;;1624894;72;792;-71
2021/01/12 01:54:49;;;;;;;;;;;22.80;34.40;;;;;;1626204;72;1155;-70
2021/01/12 01:56:51;;;;;;;;;;;22.80;34.30;;;;;;1623139;72;729;-70
2021/01/12 01:58:52;;;;;;;;;;;22.90;34.50;;;;;;1624968;72;693;-70
2021/01/12 02:00:54;;;;;;;;;;;22.90;34.50;;;;;;1624656;72;1931;-74
2021/01/12 02:02:58;;;;;;;;;;;22.80;34.40;;;;;;1618863;72;772;-69
2021/01/12 02:05:00;;;;;;;;;;;22.80;34.30;;;;;;1625445;72;1172;-69
2021/01/12 02:07:02;;;;;;;;;;;22.90;34.50;;;;;;1623211;72;732;-68
2021/01/12 02:09:15;;;;;;;;;;;22.90;34.70;;;;;;1623336;72;743;-72
2021/01/12 02:11:17;;;;;;;;;;;22.90;34.70;;;;;;1605121;73;695;-69
2021/01/12 02:13:20;;;;;;;;;;;22.90;34.90;;;;;;1619668;72;751;-71
2021/01/12 02:15:21;;;;;;;;;;;23.00;35.00;;;;;;1623624;72;1164;-67
2021/01/12 02:17:27;;;;;;;;;;;22.90;34.90;;;;;;1621877;72;706;-69
2021/01/12 02:19:29;;;;;;;;;;;22.90;34.90;;;;;;1623915;72;649;-71
2021/01/12 02:21:31;;;;;;;;;;;22.90;34.90;;;;;;1623894;72;1912;-70
2021/01/12 02:23:37;;;;;;;;;;;22.90;34.90;;;;;;1624368;72;732;-69
2021/01/12 02:25:39;;;;;;;;;;;22.90;34.90;;;;;;1621875;72;1661;-69
2021/01/12 02:27:41;;;;;;;;;;;22.90;34.90;;;;;;1592613;73;872;-67
2021/01/12 02:29:43;;;;;;;;;;;22.90;34.90;;;;;;1591534;73;734;-70
2021/01/12 02:31:45;;;;;;;;;;;22.90;34.80;;;;;;1596367;73;798;-70
2021/01/12 02:33:47;;;;;;;;;;;22.90;34.80;;;;;;1620637;72;749;-72
2021/01/12 02:35:49;;;;;;;;;;;22.90;34.80;;;;;;1623990;72;1181;-71
2021/01/12 02:37:51;;;;;;;;;;;22.90;34.80;;;;;;1624330;72;678;-69
2021/01/12 02:39:57;;;;;;;;;;;23.00;34.70;;;;;;1624765;72;823;-69
2021/01/12 02:41:59;;;;;;;;;;;22.90;34.80;;;;;;1622826;72;1928;-72
2021/01/12 02:44:02;;;;;;;;;;;22.90;34.80;;;;;;1619288;72;1140;-72
2021/01/12 02:46:03;;;;;;;;;;;22.90;34.80;;;;;;1624152;72;724;-70
2021/01/12 02:48:06;;;;;;;;;;;22.90;34.80;;;;;;1623990;72;790;-73
2021/01/12 02:50:11;;;;;;;;;;;22.90;34.90;;;;;;1626678;72;735;-71
2021/01/12 02:52:14;;;;;;;;;;;22.90;34.90;;;;;;1621502;72;1546;-70
2021/01/12 02:54:16;;;;;;;;;;;22.90;34.90;;;;;;1623347;72;1153;-71
2021/01/12 02:56:24;;;;;;;;;;;22.90;34.90;;;;;;1624005;72;696;-70
2021/01/12 02:58:26;;;;;;;;;;;22.90;34.80;;;;;;1622972;72;822;-70
2021/01/12 03:00:28;;;;;;;;;;;22.90;34.90;;;;;;1574666;73;890;-71
2021/01/12 03:02:29;;;;;;;;;;;22.90;35.00;;;;;;1624235;72;1921;-68
2021/01/12 03:04:31;;;;;;;;;;;22.90;34.80;;;;;;1623437;72;1140;-68
2021/01/12 03:06:33;;;;;;;;;;;22.90;34.90;;;;;;1624540;72;731;-68
2021/01/12 03:08:35;;;;;;;;;;;22.90;35.00;;;;;;1624502;72;697;-69
2021/01/12 03:10:37;;;;;;;;;;;22.90;35.00;;;;;;1624004;72;703;-68
2021/01/12 03:12:39;;;;;;;;;;;22.90;35.00;;;;;;1630617;72;794;-68
2021/01/12 03:14:42;;;;;;;;;;;22.90;35.00;;;;;;1624743;72;1096;-73
2021/01/12 03:16:43;;;;;;;;;;;22.90;35.00;;;;;;1623100;72;712;-69
2021/01/12 03:18:45;;;;;;;;;;;22.90;34.90;;;;;;1623752;72;756;-69
2021/01/12 03:20:47;;;;;;;;;;;22.90;35.00;;;;;;1624253;72;720;-71
2021/01/12 03:22:49;;;;;;;;;;;22.90;34.90;;;;;;1624439;72;1940;-69
2021/01/12 03:24:51;;;;;;;;;;;22.90;35.00;;;;;;1622615;72;1118;-69
2021/01/12 03:26:53;;;;;;;;;;;22.80;34.90;;;;;;1623778;72;737;-69
2021/01/12 03:28:55;;;;;;;;;;;22.80;34.90;;;;;;1623948;72;714;-70
2021/01/12 03:30:56;;;;;;;;;;;22.80;35.00;;;;;;1624115;72;716;-70
2021/01/12 03:32:58;;;;;;;;;;;22.80;35.00;;;;;;1624231;72;746;-72
2021/01/12 03:35:00;;;;;;;;;;;22.90;35.10;;;;;;1623159;72;1169;-68
2021/01/12 03:37:02;;;;;;;;;;;22.90;35.00;;;;;;1623473;72;685;-69
2021/01/12 03:39:04;;;;;;;;;;;22.90;35.00;;;;;;1633611;72;720;-69
2021/01/12 03:41:06;;;;;;;;;;;22.90;35.10;;;;;;1636277;72;684;-69
2021/01/12 03:43:08;;;;;;;;;;;22.90;35.00;;;;;;1622661;72;1932;-68
2021/01/12 03:45:10;;;;;;;;;;;22.80;34.90;;;;;;1625423;72;1137;-69
2021/01/12 03:47:12;;;;;;;;;;;22.90;35.10;;;;;;1618200;72;766;-68
2021/01/12 03:49:14;;;;;;;;;;;22.90;35.00;;;;;;1625301;72;790;-68
2021/01/12 03:51:16;;;;;;;;;;;22.90;35.10;;;;;;1624087;72;742;-69
2021/01/12 03:53:18;;;;;;;;;;;22.90;35.10;;;;;;1619377;72;674;-68
2021/01/12 03:55:19;;;;;;;;;;;22.80;35.00;;;;;;1624342;72;1247;-69
2021/01/12 03:57:21;;;;;;;;;;;22.80;35.10;;;;;;1624229;72;710;-69
2021/01/12 03:59:23;;;;;;;;;;;22.80;35.30;;;;;;1624830;72;796;-71
2021/01/12 04:01:25;;;;;;;;;;;22.80;35.20;;;;;;1622218;72;773;-70
2021/01/12 04:03:28;;;;;;;;;;;22.80;35.40;;;;;;1624251;72;1903;-68
2021/01/12 04:05:30;;;;;;;;;;;22.70;35.30;;;;;;1625841;72;1035;-69
2021/01/12 04:07:32;;;;;;;;;;;22.70;35.30;;;;;;1621148;72;784;-69
2021/01/12 04:09:33;;;;;;;;;;;22.70;35.40;;;;;;1625810;72;729;-70
2021/01/12 04:11:36;;;;;;;;;;;22.60;35.40;;;;;;1625326;72;801;-72
2021/01/12 04:13:38;;;;;;;;;;;22.60;35.50;;;;;;1622476;72;678;-68
2021/01/12 04:15:40;;;;;;;;;;;22.60;35.70;;;;;;1623583;72;1143;-68
2021/01/12 04:17:42;;;;;;;;;;;22.60;35.70;;;;;;1624548;72;771;-70
2021/01/12 04:19:43;;;;;;;;;;;22.50;35.90;;;;;;1623060;72;717;-64
2021/01/12 04:21:45;;;;;;;;;;;22.60;36.10;;;;;;1612018;72;1914;-68
2021/01/12 04:23:47;;;;;;;;;;;22.60;36.10;;;;;;1624640;72;1055;-68
2021/01/12 04:25:49;;;;;;;;;;;22.60;36.10;;;;;;1643048;72;1077;-68
2021/01/12 04:27:51;;;;;;;;;;;22.60;36.30;;;;;;1636650;72;768;-68
2021/01/12 04:29:53;;;;;;;;;;;22.60;36.30;;;;;;1636606;72;719;-67
2021/01/12 04:31:55;;;;;;;;;;;22.70;36.30;;;;;;1627927;72;705;-68
2021/01/12 04:33:56;;;;;;;;;;;22.70;36.30;;;;;;1616138;72;1182;-67
2021/01/12 04:35:58;;;;;;;;;;;22.70;36.30;;;;;;1629898;72;719;-68
2021/01/12 04:38:00;;;;;;;;;;;22.70;36.50;;;;;;1639584;72;784;-72
2021/01/12 04:40:02;;;;;;;;;;;22.60;36.30;;;;;;1638786;72;804;-71
2021/01/12 04:42:04;;;;;;;;;;;22.70;36.50;;;;;;1614497;72;1937;-68
2021/01/12 04:44:06;;;;;;;;;;;22.70;36.50;;;;;;1625948;72;1132;-66
2021/01/12 04:46:08;;;;;;;;;;;22.60;36.50;;;;;;1624045;73;675;-65
2021/01/12 04:48:10;;;;;;;;;;;22.60;36.60;;;;;;1624421;72;704;-67
2021/01/12 04:50:12;;;;;;;;;;;22.60;36.40;;;;;;1624272;72;722;-66
2021/01/12 04:52:14;;;;;;;;;;;22.60;36.30;;;;;;1630097;72;715;-68
2021/01/12 04:54:16;;;;;;;;;;;22.70;36.40;;;;;;1625226;72;1152;-68
2021/01/12 04:56:18;;;;;;;;;;;22.60;36.40;;;;;;1624190;72;685;-68
2021/01/12 04:58:20;;;;;;;;;;;22.60;36.40;;;;;;1623703;72;701;-68
2021/01/12 05:00:33;;;;;;;;;;;22.70;36.50;;;;;;1623975;72;721;-68
2021/01/12 05:02:34;;;;;;;;;;;22.70;36.50;;;;;;1618377;72;1996;-71
2021/01/12 05:04:36;;;;;;;;;;;22.70;36.50;;;;;;1624317;72;1144;-68
2021/01/12 05:06:38;;;;;;;;;;;22.70;36.40;;;;;;1624989;72;716;-68
2021/01/12 05:08:54;;;;;;;;;;;22.60;36.40;;;;;;1621370;72;749;-67
2021/01/12 05:10:50;;;;;;;;;;;22.60;36.40;;;;;;1617052;72;1484;-67
2021/01/12 05:12:52;;;;;;;;;;;22.70;36.50;;;;;;1622247;72;721;-67
2021/01/12 05:14:56;;;;;;;;;;;22.60;36.50;;;;;;1624973;72;1102;-67
2021/01/12 05:16:58;;;;;;;;;;;22.70;36.50;;;;;;1624323;72;716;-67
2021/01/12 05:19:00;;;;;;;;;;;22.70;36.50;;;;;;1625809;72;723;-69
2021/01/12 05:21:01;;;;;;;;;;;22.70;36.40;;;;;;1622636;72;739;-68
2021/01/12 05:23:07;;;;;;;;;;;22.70;36.30;;;;;;1612544;72;1921;-69
2021/01/12 05:25:22;;;;;;;;;;;22.80;36.20;;;;;;1624237;72;1145;-69
2021/01/12 05:27:24;;;;;;;;;;;22.80;36.30;;;;;;1591952;73;696;-69
2021/01/12 05:29:25;;;;;;;;;;;22.70;36.20;;;;;;1593117;73;721;-70
2021/01/12 05:31:28;;;;;;;;;;;22.70;36.20;;;;;;1573562;74;1153;-73
2021/01/12 05:33:29;;;;;;;;;;;22.70;36.20;;;;;;1625773;72;728;-70
2021/01/12 05:35:32;;;;;;;;;;;22.80;36.10;;;;;;1566534;74;1269;-68
2021/01/12 05:37:33;;;;;;;;;;;22.80;36.20;;;;;;1621233;71;642;-71
2021/01/12 05:39:36;;;;;;;;;;;22.70;36.10;;;;;;1597768;72;792;-72
2021/01/12 05:41:38;;;;;;;;;;;22.80;36.00;;;;;;1577336;73;793;-69
2021/01/12 05:43:41;;;;;;;;;;;22.80;36.10;;;;;;1606071;72;1922;-69
2021/01/12 05:45:43;;;;;;;;;;;22.80;36.00;;;;;;1592474;73;1106;-69
2021/01/12 05:47:47;;;;;;;;;;;22.80;36.00;;;;;;1624617;72;780;-69
2021/01/12 05:49:48;;;;;;;;;;;22.80;36.00;;;;;;1623979;72;1810;-69
2021/01/12 05:51:51;;;;;;;;;;;22.80;35.90;;;;;;1624770;72;639;-69
2021/01/12 05:54:00;;;;;;;;;;;22.80;36.00;;;;;;1625083;73;740;-69
2021/01/12 05:56:03;;;;;;;;;;;22.80;36.10;;;;;;1623718;72;1195;-70
2021/01/12 05:58:06;;;;;;;;;;;22.80;36.10;;;;;;1627729;72;717;-71
2021/01/12 06:00:08;;;;;;;;;;;22.90;36.20;;;;;;1627428;72;920;-72
2021/01/12 06:02:10;;;;;;;;;;;22.90;36.10;;;;;;1624363;72;741;-69
2021/01/12 06:04:13;;;;;;;;;;;22.90;36.00;;;;;;1626225;72;1131;-71
2021/01/12 06:06:14;;;;;;;;;;;22.90;35.80;;;;;;1582723;73;712;-69
2021/01/12 06:08:16;;;;;;;;;;;22.90;35.80;;;;;;1582124;73;801;-71
2021/01/12 06:10:18;;;;;;;;;;;22.90;36.00;;;;;;1621970;72;686;-72
2021/01/12 06:12:20;;;;;;;;;;;22.90;35.80;;;;;;1621282;72;732;-69
2021/01/12 06:14:26;;;;;;;;;;;22.90;35.80;;;;;;1624420;72;1135;-70
2021/01/12 06:16:28;;;;;;;;;;;23.00;35.80;;;;;;1621825;72;728;-69
2021/01/12 06:18:29;;;;;;;;;;;23.00;35.70;;;;;;1624469;72;721;-68
2021/01/12 06:20:33;;;;;;;;;;;23.00;35.70;;;;;;1625958;72;780;-69
2021/01/12 06:22:36;;;;;;;;;;;23.00;35.60;;;;;;1573922;74;1942;-69
2021/01/12 06:24:40;;;;;;;;;;;22.90;35.70;;;;;;1590449;74;1133;-69
2021/01/12 06:26:42;;;;;;;;;;;22.90;35.60;;;;;;1595393;73;739;-69
2021/01/12 06:28:44;;;;;;;;;;;23.00;35.60;;;;;;1625627;72;803;-69
2021/01/12 06:30:46;;;;;;;;;;;22.90;35.60;;;;;;1624332;72;793;-69
2021/01/12 06:32:48;;;;;;;;;;;23.00;35.40;;;;;;1625036;72;722;-69
2021/01/12 06:34:50;;;;;;;;;;;22.90;35.40;;;;;;1624671;72;1133;-68
2021/01/12 06:36:52;;;;;;;;;;;22.90;35.50;;;;;;1626123;72;771;-68
2021/01/12 06:38:54;;;;;;;;;;;22.90;35.60;;;;;;1625140;72;707;-69
2021/01/12 06:40:57;;;;;;;;;;;22.90;35.60;;;;;;1624352;72;787;-69
2021/01/12 06:42:59;;;;;;;;;;;22.90;35.50;;;;;;1619911;72;1931;-74
2021/01/12 06:45:01;;;;;;;;;;;22.90;35.70;;;;;;1620104;72;1129;-70
2021/01/12 06:47:03;;;;;;;;;;;22.90;35.60;;;;;;1622884;72;793;-68
2021/01/12 06:49:05;;;;;;;;;;;22.90;35.60;;;;;;1616241;73;709;-69
2021/01/12 06:51:07;;;;;;;;;;;22.90;35.60;;;;;;1643656;72;805;-70
2021/01/12 06:53:09;;;;;;;;;;;22.90;35.70;;;;;;1602784;73;763;-67
2021/01/12 06:55:12;;;;;;;;;;;22.90;35.60;;;;;;1598024;73;1164;-69
2021/01/12 06:57:14;;;;;;;;;;;22.90;35.70;;;;;;1603824;73;714;-72
2021/01/12 06:59:16;;;;;;;;;;;22.90;35.70;;;;;;1607672;73;771;-68
2021/01/12 07:01:21;;;;;;;;;;;22.90;35.80;;;;;;1596913;73;818;-70
2021/01/12 07:03:25;;;;;;;;;;;22.90;35.70;;;;;;1585672;73;1911;-72
2021/01/12 07:05:28;;;;;;;;;;;22.90;35.70;;;;;;1626471;72;1209;-68
2021/01/12 07:07:30;;;;;;;;;;;22.90;35.70;;;;;;1609489;73;1044;-68
2021/01/12 07:09:32;;;;;;;;;;;22.90;35.70;;;;;;1627013;73;677;-68
2021/01/12 07:11:34;;;;;;;;;;;22.90;35.70;;;;;;1624332;72;751;-68
2021/01/12 07:13:36;;;;;;;;;;;23.00;35.70;;;;;;1624265;73;711;-69
2021/01/12 07:15:42;;;;;;;;;;;23.00;35.70;;;;;;1629354;72;1063;-67
2021/01/12 07:17:45;;;;;;;;;;;22.90;35.70;;;;;;1624243;72;728;-70
2021/01/12 07:19:47;;;;;;;;;;;22.90;35.70;;;;;;1594780;73;681;-69
2021/01/12 07:21:48;;;;;;;;;;;22.90;35.60;;;;;;1624426;72;760;-68
2021/01/12 07:23:50;;;;;;;;;;;23.00;35.70;;;;;;1624250;72;1929;-69
2021/01/12 07:25:52;;;;;;;;;;;23.00;35.50;;;;;;1570103;74;1203;-75
2021/01/12 07:28:01;;;;;;;;;;;23.10;35.70;;;;;;1626798;72;782;-71
2021/01/12 07:30:05;;;;;;;;;;;23.00;35.50;;;;;;1623656;72;744;-69
2021/01/12 07:32:07;;;;;;;;;;;23.00;35.40;;;;;;1622284;72;997;-67
2021/01/12 07:34:15;;;;;;;;;;;23.00;35.40;;;;;;1622822;73;1150;-69
2021/01/12 07:36:17;;;;;;;;;;;23.00;35.40;;;;;;1620579;72;742;-68
2021/01/12 07:38:19;;;;;;;;;;;23.00;35.30;;;;;;1624224;72;696;-69
2021/01/12 07:40:21;;;;;;;;;;;23.00;35.20;;;;;;1594553;73;729;-68
2021/01/12 07:42:23;;;;;;;;;;;23.00;35.30;;;;;;1616152;72;896;-67
2021/01/12 07:44:28;;;;;;;;;;;23.00;35.30;;;;;;1627248;72;1939;-68
2021/01/12 07:46:30;;;;;;;;;;;23.00;35.30;;;;;;1584308;73;788;-69
2021/01/12 07:48:31;;;;;;;;;;;23.00;35.30;;;;;;1579533;73;773;-69
2021/01/12 07:50:33;;;;;;;;;;;23.00;35.20;;;;;;1625893;72;810;-69
2021/01/12 07:52:35;;;;;;;;;;;23.00;35.20;;;;;;1610128;72;710;-69
2021/01/12 07:54:37;;;;;;;;;;;23.10;35.30;;;;;;1604003;72;1163;-69
2021/01/12 07:56:39;;;;;;;;;;;23.00;35.40;;;;;;1611527;72;724;-71
2021/01/12 07:58:41;;;;;;;;;;;23.10;35.50;;;;;;1595922;73;1284;-73
2021/01/12 08:00:43;;;;;;;;;;;23.00;35.40;;;;;;1607107;72;728;-72
2021/01/12 08:02:46;;;;;;;;;;;23.00;35.40;;;;;;1610384;72;717;-68
2021/01/12 08:04:48;;;;;;;;;;;23.00;35.50;;;;;;1606517;72;1924;-69
2021/01/12 08:06:50;;;;;;;;;;;23.10;35.60;;;;;;1591442;73;698;-68
2021/01/12 08:08:57;;;;;;;;;;;23.10;35.60;;;;;;1622548;72;696;-68
2021/01/12 08:10:59;;;;;;;;;;;23.10;35.60;;;;;;1621829;72;670;-69
2021/01/12 08:13:04;;;;;;;;;;;23.10;35.50;;;;;;1624447;72;758;-70
2021/01/12 08:15:10;;;;;;;;;;;23.10;35.50;;;;;;1620972;72;1118;-68
2021/01/12 08:17:12;;;;;;;;;;;23.10;35.50;;;;;;1622759;72;781;-69
2021/01/12 08:19:15;;;;;;;;;;;23.00;35.60;;;;;;1600256;73;1131;-69
2021/01/12 08:21:17;;;;;;;;;;;23.00;35.60;;;;;;1623576;71;1127;-67
2021/01/12 08:23:19;;;;;;;;;;;23.00;35.70;;;;;;1623342;72;1933;-66
2021/01/12 08:25:21;;;;;;;;;;;23.00;35.90;;;;;;1623385;72;1118;-67
2021/01/12 08:27:23;;;;;;;;;;;23.00;35.40;;;;;;1624551;72;777;-66
2021/01/12 08:29:25;;;;;;;;;;;23.00;35.50;;;;;;1620598;72;682;-67
2021/01/12 08:31:27;;;;;;;;;;;23.00;35.40;;;;;;1622690;72;685;-66
2021/01/12 08:33:31;;;;;;;;;;;23.10;35.80;;;;;;1624143;72;752;-66
2021/01/12 08:35:34;;;;;;;;;;;23.00;35.50;;;;;;1622652;72;1157;-65
2021/01/12 08:37:40;;;;;;;;;;;23.10;35.50;;;;;;1599543;73;711;-66
2021/01/12 08:39:43;;;;;;;;;;;23.20;35.10;;;;;;1615104;73;731;-69
2021/01/12 08:41:45;;;;;;;;;;;23.20;34.10;;;;;;1594599;73;705;-67
2021/01/12 08:43:47;;;;;;;;;;;23.30;34.70;;;;;;1593461;73;1967;-67
2021/01/12 08:45:49;;;;;;;;;;;23.50;35.00;;;;;;1623258;72;1104;-68
2021/01/12 08:47:53;;;;;;;;;;;23.50;34.90;;;;;;1619745;72;773;-67
2021/01/12 08:50:02;;;;;;;;;;;23.60;34.70;;;;;;1622624;72;698;-66
2021/01/12 08:52:05;;;;;;;;;;;23.60;34.10;;;;;;1624046;72;786;-66
2021/01/12 08:54:07;;;;;;;;;;;23.60;34.30;;;;;;1623864;72;1110;-66
2021/01/12 08:56:09;;;;;;;;;;;23.60;33.90;;;;;;1623418;72;795;-67
2021/01/12 08:58:10;;;;;;;;;;;23.70;33.90;;;;;;1619239;72;718;-67
2021/01/12 09:00:13;;;;;;;;;;;23.80;33.60;;;;;;1622974;73;697;-68
2021/01/12 09:02:19;;;;;;;;;;;23.80;32.90;;;;;;1623826;72;817;-67
2021/01/12 09:04:21;;;;;;;;;;;23.70;33.40;;;;;;1621536;72;1916;-65
2021/01/12 09:06:23;;;;;;;;;;;23.80;33.30;;;;;;1623215;72;787;-66
2021/01/12 09:08:25;;;;;;;;;;;23.80;33.10;;;;;;1623433;72;662;-68
2021/01/12 09:10:27;;;;;;;;;;;23.90;33.10;;;;;;1623401;72;609;-67
2021/01/12 09:12:29;;;;;;;;;;;23.90;32.90;;;;;;1625322;72;775;-66
2021/01/12 09:14:31;;;;;;;;;;;23.90;32.80;;;;;;1619359;72;1156;-65
2021/01/12 09:16:33;;;;;;;;;;;23.90;32.70;;;;;;1623933;72;775;-65
2021/01/12 09:18:38;;;;;;;;;;;23.90;32.30;;;;;;1624130;72;762;-66
2021/01/12 09:20:40;;;;;;;;;;;23.90;32.00;;;;;;1623981;72;746;-66
2021/01/12 09:22:42;;;;;;;;;;;24.00;31.90;;;;;;1623803;72;732;-65
2021/01/12 09:24:48;;;;;;;;;;;24.00;31.80;;;;;;1621086;73;1905;-64
2021/01/12 09:26:50;;;;;;;;;;;23.90;31.60;;;;;;1586708;73;801;-66
2021/01/12 09:28:51;;;;;;;;;;;24.00;31.50;;;;;;1603101;73;1144;-66
2021/01/12 09:30:55;;;;;;;;;;;23.90;31.40;;;;;;1618177;72;644;-66
2021/01/12 09:32:57;;;;;;;;;;;23.90;31.40;;;;;;1613142;72;1614;-67
2021/01/12 09:34:59;;;;;;;;;;;24.00;31.30;;;;;;1622929;72;1127;-65
2021/01/12 09:37:01;;;;;;;;;;;23.90;31.30;;;;;;1622672;72;761;-66
2021/01/12 09:39:07;;;;;;;;;;;23.90;31.20;;;;;;1635291;72;742;-66
2021/01/12 09:41:09;;;;;;;;;;;23.90;31.40;;;;;;1637518;72;699;-65
2021/01/12 09:43:11;;;;;;;;;;;23.90;31.30;;;;;;1622837;72;727;-69
2021/01/12 09:45:13;;;;;;;;;;;23.90;31.30;;;;;;1623479;72;1932;-70
2021/01/12 09:47:15;;;;;;;;;;;23.90;31.20;;;;;;1623678;72;712;-66
2021/01/12 09:49:17;;;;;;;;;;;23.90;31.20;;;;;;1596727;73;799;-66
2021/01/12 09:51:19;;;;;;;;;;;23.90;31.10;;;;;;1591861;73;791;-67
2021/01/12 09:53:21;;;;;;;;;;;23.90;31.10;;;;;;1619004;72;702;-66
2021/01/12 09:55:23;;;;;;;;;;;23.90;31.00;;;;;;1607341;72;1147;-66
2021/01/12 09:57:24;;;;;;;;;;;23.90;30.30;;;;;;1606895;72;670;-67
2021/01/12 09:59:26;;;;;;;;;;;23.90;30.20;;;;;;1608641;72;795;-67
2021/01/12 10:01:28;;;;;;;;;;;23.80;30.00;;;;;;1606947;72;611;-69
2021/01/12 10:03:31;;;;;;;;;;;23.90;30.10;;;;;;1602837;72;694;-67
2021/01/12 10:05:39;;;;;;;;;;;23.90;30.00;;;;;;1612561;72;1925;-67
2021/01/12 10:07:41;;;;;;;;;;;23.80;30.00;;;;;;1626181;73;777;-67
2021/01/12 10:09:43;;;;;;;;;;;23.90;30.10;;;;;;1626635;72;765;-67
2021/01/12 10:11:44;;;;;;;;;;;23.90;29.80;;;;;;1626573;73;724;-69
2021/01/12 10:13:46;;;;;;;;;;;23.80;29.80;;;;;;1623357;72;653;-69
2021/01/12 10:15:48;;;;;;;;;;;23.70;29.40;;;;;;1624672;73;1128;-70
2021/01/12 10:17:50;;;;;;;;;;;23.60;28.40;;;;;;1623173;73;722;-69
2021/01/12 10:19:52;;;;;;;;;;;23.50;28.10;;;;;;1625817;73;723;-69
2021/01/12 10:21:54;;;;;;;;;;;23.30;26.60;;;;;;1625786;72;643;-69
2021/01/12 10:23:56;;;;;;;;;;;23.10;27.30;;;;;;1626730;73;1921;-68
2021/01/12 10:25:58;;;;;;;;;;;23.00;27.30;;;;;;1620962;72;1047;-69
2021/01/12 10:28:00;;;;;;;;;;;22.80;27.10;;;;;;1626341;72;796;-68
2021/01/12 10:30:02;;;;;;;;;;;22.80;26.70;;;;;;1626417;72;695;-67
2021/01/12 10:32:04;;;;;;;;;;;22.70;27.20;;;;;;1626712;73;704;-68
2021/01/12 10:34:06;;;;;;;;;;;22.60;27.50;;;;;;1622819;72;1089;-68
2021/01/12 10:36:08;;;;;;;;;;;22.50;27.20;;;;;;1625938;72;809;-66
2021/01/12 10:38:09;;;;;;;;;;;22.40;27.30;;;;;;1625709;73;770;-69
2021/01/12 10:40:12;;;;;;;;;;;22.30;27.40;;;;;;1621711;73;699;-68
2021/01/12 10:42:15;;;;;;;;;;;22.30;27.60;;;;;;1625806;73;637;-68
2021/01/12 10:44:16;;;;;;;;;;;22.20;27.50;;;;;;1626514;72;1925;-67
2021/01/12 10:46:18;;;;;;;;;;;22.20;27.60;;;;;;1625327;72;781;-67
2021/01/12 10:48:20;;;;;;;;;;;22.00;27.50;;;;;;1625046;72;777;-68
2021/01/12 10:50:22;;;;;;;;;;;22.00;27.80;;;;;;1621982;73;765;-68
2021/01/12 10:52:24;;;;;;;;;;;22.00;27.90;;;;;;1625929;72;791;-68
2021/01/12 10:54:26;;;;;;;;;;;22.00;27.60;;;;;;1622488;73;1174;-67
2021/01/12 10:56:28;;;;;;;;;;;22.00;27.80;;;;;;1622334;72;794;-68
2021/01/12 10:58:30;;;;;;;;;;;21.80;27.80;;;;;;1621761;72;721;-68
2021/01/12 11:00:32;;;;;;;;;;;21.80;28.00;;;;;;1622980;72;711;-68
2021/01/12 11:02:35;;;;;;;;;;;21.80;28.10;;;;;;1623964;72;642;-69
2021/01/12 11:04:37;;;;;;;;;;;21.70;28.10;;;;;;1623964;72;1918;-70
2021/01/12 11:06:40;;;;;;;;;;;21.70;28.10;;;;;;1590417;73;755;-68
2021/01/12 11:08:44;;;;;;;;;;;21.70;28.20;;;;;;1620861;72;960;-68
2021/01/12 11:10:46;;;;;;;;;;;21.70;28.20;;;;;;1623468;72;1054;-68
2021/01/12 11:12:48;;;;;;;;;;;21.70;28.30;;;;;;1591526;74;772;-67
2021/01/12 11:14:50;;;;;;;;;;;21.70;28.60;;;;;;1619778;72;1133;-68
2021/01/12 11:16:52;;;;;;;;;;;21.50;28.70;;;;;;1622764;72;825;-68
2021/01/12 11:18:55;;;;;;;;;;;21.50;29.10;;;;;;1595990;73;725;-68
2021/01/12 11:20:57;;;;;;;;;;;21.50;29.50;;;;;;1578225;73;1092;-67
2021/01/12 11:22:59;;;;;;;;;;;21.50;29.80;;;;;;1592816;73;630;-69
2021/01/12 11:25:05;;;;;;;;;;;21.40;30.00;;;;;;1624557;72;1946;-66
2021/01/12 11:27:08;;;;;;;;;;;21.40;30.50;;;;;;1626841;72;722;-66
2021/01/12 11:29:10;;;;;;;;;;;21.50;31.70;;;;;;1623458;72;711;-69
2021/01/12 11:31:14;;;;;;;;;;;21.50;33.00;;;;;;1609514;72;795;-67
2021/01/12 11:33:16;;;;;;;;;;;21.60;36.90;;;;;;1595419;73;1532;-67
2021/01/12 11:35:19;;;;;;;;;;;21.60;36.80;;;;;;1590906;73;1106;-69
2021/01/12 11:37:21;;;;;;;;;;;21.60;36.10;;;;;;1576029;73;875;-68
2021/01/12 11:39:22;;;;;;;;;;;21.60;36.30;;;;;;1594542;73;705;-67
2021/01/12 11:41:26;;;;;;;;;;;21.80;35.70;;;;;;1594183;73;730;-68
2021/01/12 11:43:28;;;;;;;;;;;21.90;36.00;;;;;;1588848;73;732;-67
2021/01/12 11:45:30;;;;;;;;;;;21.90;36.30;;;;;;1583855;73;1939;-68
2021/01/12 11:47:31;;;;;;;;;;;22.00;35.90;;;;;;1627332;72;683;-66
2021/01/12 11:49:33;;;;;;;;;;;22.00;35.50;;;;;;1621354;72;694;-67
2021/01/12 11:51:36;;;;;;;;;;;22.10;35.50;;;;;;1623297;72;705;-67
2021/01/12 11:53:38;;;;;;;;;;;22.20;35.30;;;;;;1631764;72;818;-68
2021/01/12 11:55:42;;;;;;;;;;;22.20;35.30;;;;;;1625544;72;1140;-67
2021/01/12 11:57:44;;;;;;;;;;;22.20;35.10;;;;;;1625776;72;729;-67
2021/01/12 11:59:46;;;;;;;;;;;22.20;35.20;;;;;;1630014;72;723;-66
2021/01/12 12:01:49;;;;;;;;;;;22.30;35.00;;;;;;1634615;72;767;-66
2021/01/12 12:03:50;;;;;;;;;;;22.30;35.00;;;;;;1609714;73;783;-68
2021/01/12 12:05:52;;;;;;;;;;;22.30;34.90;;;;;;1593015;72;1955;-65
2021/01/12 12:07:54;;;;;;;;;;;22.30;34.80;;;;;;1630563;72;754;-65
2021/01/12 12:09:56;;;;;;;;;;;22.30;34.80;;;;;;1615082;73;747;-65